sensor_id;sensor_type;location;lat;lon;timestamp;P1;durP1;ratioP1;P2;durP2;ratioP2
22565;SDS011;11449;51.330;19.378;2022-09-09T00:04:19;181.12;;;137.92;;
22565;SDS011;11449;51.330;19.378;2022-09-09T00:09:21;223.85;;;160.25;;
22565;SDS011;11449;51.330;19.378;2022-09-09T00:19:33;218.93;;;148.87;;
22565;SDS011;11449;51.330;19.378;2022-09-09T00:24:32;268.17;;;157.52;;
22565;SDS011;11449;51.330;19.378;2022-09-09T00:34:36;244.82;;;158.78;;
22565;SDS011;11449;51.330;19.378;2022-09-09T00:39:42;211.37;;;149.12;;
22565;SDS011;11449;51.330;19.378;2022-09-09T00:50:12;153.42;;;114.03;;
22565;SDS011;11449;51.330;19.378;2022-09-09T01:00:35;147.95;;;111.52;;
22565;SDS011;11449;51.330;19.378;2022-09-09T01:10:52;157.03;;;121.37;;
22565;SDS011;11449;51.330;19.378;2022-09-09T01:15:56;144.07;;;124.47;;
22565;SDS011;11449;51.330;19.378;2022-09-09T01:21:47;153.62;;;100.38;;
22565;SDS011;11449;51.330;19.378;2022-09-09T01:31:11;143.17;;;97.95;;
22565;SDS011;11449;51.330;19.378;2022-09-09T01:41:20;86.10;;;35.23;;
22565;SDS011;11449;51.330;19.378;2022-09-09T01:46:23;74.82;;;24.35;;
22565;SDS011;11449;51.330;19.378;2022-09-09T01:51:25;75.97;;;24.20;;
22565;SDS011;11449;51.330;19.378;2022-09-09T02:06:55;76.63;;;23.57;;
22565;SDS011;11449;51.330;19.378;2022-09-09T02:12:05;84.47;;;27.93;;
22565;SDS011;11449;51.330;19.378;2022-09-09T02:17:07;93.40;;;29.87;;
22565;SDS011;11449;51.330;19.378;2022-09-09T02:22:08;88.33;;;25.65;;
22565;SDS011;11449;51.330;19.378;2022-09-09T02:27:09;78.80;;;25.57;;
22565;SDS011;11449;51.330;19.378;2022-09-09T02:32:12;95.83;;;25.48;;
22565;SDS011;11449;51.330;19.378;2022-09-09T02:37:15;93.30;;;24.90;;
22565;SDS011;11449;51.330;19.378;2022-09-09T02:42:19;69.70;;;20.60;;
22565;SDS011;11449;51.330;19.378;2022-09-09T02:47:32;77.12;;;22.82;;
22565;SDS011;11449;51.330;19.378;2022-09-09T02:57:43;84.42;;;22.58;;
22565;SDS011;11449;51.330;19.378;2022-09-09T03:02:48;77.37;;;21.25;;
22565;SDS011;11449;51.330;19.378;2022-09-09T03:07:50;100.35;;;22.98;;
22565;SDS011;11449;51.330;19.378;2022-09-09T03:12:52;77.17;;;20.50;;
22565;SDS011;11449;51.330;19.378;2022-09-09T03:17:54;81.40;;;20.48;;
22565;SDS011;11449;51.330;19.378;2022-09-09T03:22:56;79.40;;;20.77;;
22565;SDS011;11449;51.330;19.378;2022-09-09T03:27:57;95.95;;;21.57;;
22565;SDS011;11449;51.330;19.378;2022-09-09T03:32:58;104.65;;;22.17;;
22565;SDS011;11449;51.330;19.378;2022-09-09T03:38:01;90.55;;;21.25;;
22565;SDS011;11449;51.330;19.378;2022-09-09T03:43:03;59.85;;;18.30;;
22565;SDS011;11449;51.330;19.378;2022-09-09T03:48:05;87.17;;;20.00;;
22565;SDS011;11449;51.330;19.378;2022-09-09T03:53:07;153.82;;;22.15;;
22565;SDS011;11449;51.330;19.378;2022-09-09T03:58:08;85.65;;;20.08;;
22565;SDS011;11449;51.330;19.378;2022-09-09T04:03:10;68.92;;;18.75;;
22565;SDS011;11449;51.330;19.378;2022-09-09T04:08:11;53.42;;;16.52;;
22565;SDS011;11449;51.330;19.378;2022-09-09T04:13:13;67.60;;;16.80;;
22565;SDS011;11449;51.330;19.378;2022-09-09T04:18:15;71.57;;;17.02;;
22565;SDS011;11449;51.330;19.378;2022-09-09T04:23:17;62.85;;;16.20;;
22565;SDS011;11449;51.330;19.378;2022-09-09T04:28:20;81.28;;;16.50;;
22565;SDS011;11449;51.330;19.378;2022-09-09T04:33:23;77.20;;;16.50;;
22565;SDS011;11449;51.330;19.378;2022-09-09T04:38:25;69.03;;;15.65;;
22565;SDS011;11449;51.330;19.378;2022-09-09T04:43:27;87.25;;;17.10;;
22565;SDS011;11449;51.330;19.378;2022-09-09T04:48:28;74.00;;;16.45;;
22565;SDS011;11449;51.330;19.378;2022-09-09T04:53:30;75.03;;;16.70;;
22565;SDS011;11449;51.330;19.378;2022-09-09T04:58:32;82.27;;;16.30;;
22565;SDS011;11449;51.330;19.378;2022-09-09T05:03:33;78.17;;;17.70;;
22565;SDS011;11449;51.330;19.378;2022-09-09T05:08:38;75.12;;;17.27;;
22565;SDS011;11449;51.330;19.378;2022-09-09T05:13:40;64.55;;;17.05;;
22565;SDS011;11449;51.330;19.378;2022-09-09T05:18:41;75.20;;;18.35;;
22565;SDS011;11449;51.330;19.378;2022-09-09T05:23:47;79.72;;;18.75;;
22565;SDS011;11449;51.330;19.378;2022-09-09T05:28:48;65.55;;;18.02;;
22565;SDS011;11449;51.330;19.378;2022-09-09T05:33:49;80.70;;;20.48;;
22565;SDS011;11449;51.330;19.378;2022-09-09T05:38:50;67.37;;;20.08;;
22565;SDS011;11449;51.330;19.378;2022-09-09T05:43:53;92.70;;;25.60;;
22565;SDS011;11449;51.330;19.378;2022-09-09T05:48:55;77.15;;;25.65;;
22565;SDS011;11449;51.330;19.378;2022-09-09T05:53:58;110.97;;;22.27;;
22565;SDS011;11449;51.330;19.378;2022-09-09T05:58:59;77.65;;;24.45;;
22565;SDS011;11449;51.330;19.378;2022-09-09T06:04:04;69.50;;;27.10;;
22565;SDS011;11449;51.330;19.378;2022-09-09T06:09:06;81.97;;;24.43;;
22565;SDS011;11449;51.330;19.378;2022-09-09T06:14:09;68.90;;;17.10;;
22565;SDS011;11449;51.330;19.378;2022-09-09T06:19:11;69.10;;;16.10;;
22565;SDS011;11449;51.330;19.378;2022-09-09T06:24:13;77.25;;;16.12;;
22565;SDS011;11449;51.330;19.378;2022-09-09T06:29:16;59.08;;;14.03;;
22565;SDS011;11449;51.330;19.378;2022-09-09T06:34:17;69.07;;;14.93;;
22565;SDS011;11449;51.330;19.378;2022-09-09T06:39:23;63.90;;;14.28;;
22565;SDS011;11449;51.330;19.378;2022-09-09T06:44:24;52.38;;;13.22;;
22565;SDS011;11449;51.330;19.378;2022-09-09T06:49:27;60.12;;;13.68;;
22565;SDS011;11449;51.330;19.378;2022-09-09T06:54:28;77.35;;;14.18;;
22565;SDS011;11449;51.330;19.378;2022-09-09T06:59:29;59.85;;;12.73;;
22565;SDS011;11449;51.330;19.378;2022-09-09T07:04:33;64.00;;;13.18;;
22565;SDS011;11449;51.330;19.378;2022-09-09T07:09:34;61.40;;;12.58;;
22565;SDS011;11449;51.330;19.378;2022-09-09T07:14:36;54.35;;;11.45;;
22565;SDS011;11449;51.330;19.378;2022-09-09T07:19:39;57.88;;;11.73;;
22565;SDS011;11449;51.330;19.378;2022-09-09T07:24:40;62.48;;;11.57;;
22565;SDS011;11449;51.330;19.378;2022-09-09T07:29:41;49.50;;;10.82;;
22565;SDS011;11449;51.330;19.378;2022-09-09T07:34:42;49.13;;;9.90;;
22565;SDS011;11449;51.330;19.378;2022-09-09T07:39:44;68.30;;;12.63;;
22565;SDS011;11449;51.330;19.378;2022-09-09T07:44:46;56.40;;;11.43;;
22565;SDS011;11449;51.330;19.378;2022-09-09T07:49:49;56.25;;;10.45;;
22565;SDS011;11449;51.330;19.378;2022-09-09T07:54:52;81.10;;;12.00;;
22565;SDS011;11449;51.330;19.378;2022-09-09T07:59:53;172.30;;;19.85;;
22565;SDS011;11449;51.330;19.378;2022-09-09T08:04:54;67.03;;;9.90;;
22565;SDS011;11449;51.330;19.378;2022-09-09T08:09:55;61.35;;;8.98;;
22565;SDS011;11449;51.330;19.378;2022-09-09T08:14:59;65.47;;;12.20;;
22565;SDS011;11449;51.330;19.378;2022-09-09T08:20:02;240.70;;;214.57;;
22565;SDS011;11449;51.330;19.378;2022-09-09T08:25:06;51.63;;;13.35;;
22565;SDS011;11449;51.330;19.378;2022-09-09T08:30:09;56.13;;;19.45;;
22565;SDS011;11449;51.330;19.378;2022-09-09T08:35:11;93.95;;;80.45;;
22565;SDS011;11449;51.330;19.378;2022-09-09T08:40:17;63.45;;;21.80;;
22565;SDS011;11449;51.330;19.378;2022-09-09T08:45:22;75.57;;;62.30;;
22565;SDS011;11449;51.330;19.378;2022-09-09T08:50:26;393.88;;;247.82;;
22565;SDS011;11449;51.330;19.378;2022-09-09T08:55:35;386.02;;;245.97;;
22565;SDS011;11449;51.330;19.378;2022-09-09T09:00:41;392.50;;;242.13;;
22565;SDS011;11449;51.330;19.378;2022-09-09T09:05:42;389.35;;;241.60;;
22565;SDS011;11449;51.330;19.378;2022-09-09T09:10:50;399.17;;;231.90;;
22565;SDS011;11449;51.330;19.378;2022-09-09T09:15:56;404.50;;;253.10;;
22565;SDS011;11449;51.330;19.378;2022-09-09T09:26:12;6.50;;;4.15;;
22565;SDS011;11449;51.330;19.378;2022-09-09T09:31:13;4.25;;;3.00;;
22565;SDS011;11449;51.330;19.378;2022-09-09T09:36:16;5.90;;;4.00;;
22565;SDS011;11449;51.330;19.378;2022-09-09T09:41:28;6.60;;;3.70;;
22565;SDS011;11449;51.330;19.378;2022-09-09T09:46:23;143.13;;;129.47;;
22565;SDS011;11449;51.330;19.378;2022-09-09T09:51:25;393.80;;;283.85;;
22565;SDS011;11449;51.330;19.378;2022-09-09T09:56:27;321.15;;;284.75;;
22565;SDS011;11449;51.330;19.378;2022-09-09T10:01:31;4.53;;;3.27;;
22565;SDS011;11449;51.330;19.378;2022-09-09T10:06:36;5.45;;;3.00;;
22565;SDS011;11449;51.330;19.378;2022-09-09T10:32:33;5.28;;;4.72;;
22565;SDS011;11449;51.330;19.378;2022-09-09T10:42:37;107.50;;;58.23;;
22565;SDS011;11449;51.330;19.378;2022-09-09T10:57:54;412.85;;;254.03;;
22565;SDS011;11449;51.330;19.378;2022-09-09T11:02:58;409.87;;;276.62;;
22565;SDS011;11449;51.330;19.378;2022-09-09T11:13:07;259.32;;;240.00;;
22565;SDS011;11449;51.330;19.378;2022-09-09T11:18:10;180.00;;;162.62;;
22565;SDS011;11449;51.330;19.378;2022-09-09T11:23:12;35.45;;;5.62;;
22565;SDS011;11449;51.330;19.378;2022-09-09T11:38:55;37.73;;;5.95;;
22565;SDS011;11449;51.330;19.378;2022-09-09T11:43:52;47.78;;;6.83;;
22565;SDS011;11449;51.330;19.378;2022-09-09T11:49:00;34.50;;;5.40;;
22565;SDS011;11449;51.330;19.378;2022-09-09T11:54:03;35.90;;;5.67;;
22565;SDS011;11449;51.330;19.378;2022-09-09T11:59:06;48.17;;;6.90;;
22565;SDS011;11449;51.330;19.378;2022-09-09T12:04:17;27.37;;;5.60;;
22565;SDS011;11449;51.330;19.378;2022-09-09T12:09:24;33.80;;;5.50;;
22565;SDS011;11449;51.330;19.378;2022-09-09T12:19:46;37.00;;;6.15;;
22565;SDS011;11449;51.330;19.378;2022-09-09T12:24:50;34.30;;;4.50;;
22565;SDS011;11449;51.330;19.378;2022-09-09T12:30:09;39.38;;;5.15;;
22565;SDS011;11449;51.330;19.378;2022-09-09T12:40:21;31.03;;;3.80;;
22565;SDS011;11449;51.330;19.378;2022-09-09T12:45:23;33.42;;;3.90;;
22565;SDS011;11449;51.330;19.378;2022-09-09T12:50:28;40.98;;;4.30;;
22565;SDS011;11449;51.330;19.378;2022-09-09T12:55:30;35.98;;;4.22;;
22565;SDS011;11449;51.330;19.378;2022-09-09T13:00:33;37.42;;;4.37;;
22565;SDS011;11449;51.330;19.378;2022-09-09T13:05:35;36.28;;;4.28;;
22565;SDS011;11449;51.330;19.378;2022-09-09T13:10:46;48.58;;;6.83;;
22565;SDS011;11449;51.330;19.378;2022-09-09T13:15:39;36.17;;;5.42;;
22565;SDS011;11449;51.330;19.378;2022-09-09T13:20:45;40.78;;;5.50;;
22565;SDS011;11449;51.330;19.378;2022-09-09T13:25:52;29.27;;;4.62;;
22565;SDS011;11449;51.330;19.378;2022-09-09T13:30:55;47.60;;;6.42;;
22565;SDS011;11449;51.330;19.378;2022-09-09T13:45:59;42.67;;;6.62;;
22565;SDS011;11449;51.330;19.378;2022-09-09T13:51:01;54.48;;;8.70;;
22565;SDS011;11449;51.330;19.378;2022-09-09T13:56:03;46.02;;;6.35;;
22565;SDS011;11449;51.330;19.378;2022-09-09T14:01:05;60.48;;;7.87;;
22565;SDS011;11449;51.330;19.378;2022-09-09T14:06:06;48.42;;;6.30;;
22565;SDS011;11449;51.330;19.378;2022-09-09T14:11:08;42.83;;;6.03;;
22565;SDS011;11449;51.330;19.378;2022-09-09T14:16:11;44.75;;;5.97;;
22565;SDS011;11449;51.330;19.378;2022-09-09T14:21:11;42.05;;;5.72;;
22565;SDS011;11449;51.330;19.378;2022-09-09T14:26:12;52.83;;;7.12;;
22565;SDS011;11449;51.330;19.378;2022-09-09T14:31:13;51.35;;;6.78;;
22565;SDS011;11449;51.330;19.378;2022-09-09T14:36:14;40.75;;;5.85;;
22565;SDS011;11449;51.330;19.378;2022-09-09T14:41:16;65.92;;;8.45;;
22565;SDS011;11449;51.330;19.378;2022-09-09T14:46:17;48.73;;;6.50;;
22565;SDS011;11449;51.330;19.378;2022-09-09T14:51:20;73.40;;;8.70;;
22565;SDS011;11449;51.330;19.378;2022-09-09T14:56:24;43.85;;;4.85;;
22565;SDS011;11449;51.330;19.378;2022-09-09T15:01:25;53.28;;;5.75;;
22565;SDS011;11449;51.330;19.378;2022-09-09T15:06:30;57.03;;;5.75;;
22565;SDS011;11449;51.330;19.378;2022-09-09T15:11:34;61.95;;;6.37;;
22565;SDS011;11449;51.330;19.378;2022-09-09T15:16:37;54.00;;;5.60;;
22565;SDS011;11449;51.330;19.378;2022-09-09T15:21:38;74.62;;;7.83;;
22565;SDS011;11449;51.330;19.378;2022-09-09T15:26:39;56.50;;;5.55;;
22565;SDS011;11449;51.330;19.378;2022-09-09T15:31:40;43.58;;;4.60;;
22565;SDS011;11449;51.330;19.378;2022-09-09T15:36:42;42.10;;;4.90;;
22565;SDS011;11449;51.330;19.378;2022-09-09T15:41:47;81.08;;;8.75;;
22565;SDS011;11449;51.330;19.378;2022-09-09T15:51:51;49.38;;;5.58;;
22565;SDS011;11449;51.330;19.378;2022-09-09T15:56:54;72.80;;;7.53;;
22565;SDS011;11449;51.330;19.378;2022-09-09T16:01:57;85.85;;;8.63;;
22565;SDS011;11449;51.330;19.378;2022-09-09T16:06:59;60.10;;;6.72;;
22565;SDS011;11449;51.330;19.378;2022-09-09T16:12:01;77.70;;;8.58;;
22565;SDS011;11449;51.330;19.378;2022-09-09T16:17:03;64.72;;;7.40;;
22565;SDS011;11449;51.330;19.378;2022-09-09T16:22:04;87.45;;;8.93;;
22565;SDS011;11449;51.330;19.378;2022-09-09T16:27:07;78.50;;;9.45;;
22565;SDS011;11449;51.330;19.378;2022-09-09T16:32:08;63.65;;;8.23;;
22565;SDS011;11449;51.330;19.378;2022-09-09T16:37:09;68.05;;;14.75;;
22565;SDS011;11449;51.330;19.378;2022-09-09T16:42:11;55.90;;;7.92;;
22565;SDS011;11449;51.330;19.378;2022-09-09T16:47:12;92.57;;;12.70;;
22565;SDS011;11449;51.330;19.378;2022-09-09T16:52:13;102.53;;;14.38;;
22565;SDS011;11449;51.330;19.378;2022-09-09T16:57:14;81.50;;;16.10;;
22565;SDS011;11449;51.330;19.378;2022-09-09T17:02:15;89.28;;;26.82;;
22565;SDS011;11449;51.330;19.378;2022-09-09T17:07:16;66.67;;;15.93;;
22565;SDS011;11449;51.330;19.378;2022-09-09T17:12:19;73.78;;;25.32;;
22565;SDS011;11449;51.330;19.378;2022-09-09T17:17:20;98.67;;;20.60;;
22565;SDS011;11449;51.330;19.378;2022-09-09T17:22:21;89.22;;;58.13;;
22565;SDS011;11449;51.330;19.378;2022-09-09T17:27:23;127.82;;;73.67;;
22565;SDS011;11449;51.330;19.378;2022-09-09T17:32:24;163.05;;;85.67;;
22565;SDS011;11449;51.330;19.378;2022-09-09T17:37:25;120.67;;;45.88;;
22565;SDS011;11449;51.330;19.378;2022-09-09T17:42:26;86.17;;;38.75;;
22565;SDS011;11449;51.330;19.378;2022-09-09T17:47:27;78.60;;;40.28;;
22565;SDS011;11449;51.330;19.378;2022-09-09T17:52:29;94.67;;;25.85;;
22565;SDS011;11449;51.330;19.378;2022-09-09T17:57:31;105.67;;;44.77;;
22565;SDS011;11449;51.330;19.378;2022-09-09T18:02:32;66.37;;;15.45;;
22565;SDS011;11449;51.330;19.378;2022-09-09T18:07:33;85.07;;;17.67;;
22565;SDS011;11449;51.330;19.378;2022-09-09T18:12:34;105.40;;;26.35;;
22565;SDS011;11449;51.330;19.378;2022-09-09T18:17:35;71.77;;;18.60;;
22565;SDS011;11449;51.330;19.378;2022-09-09T18:22:35;52.20;;;15.72;;
22565;SDS011;11449;51.330;19.378;2022-09-09T18:27:36;55.83;;;16.82;;
22565;SDS011;11449;51.330;19.378;2022-09-09T18:32:37;67.50;;;16.37;;
22565;SDS011;11449;51.330;19.378;2022-09-09T18:37:38;62.95;;;16.05;;
22565;SDS011;11449;51.330;19.378;2022-09-09T18:42:39;58.17;;;15.83;;
22565;SDS011;11449;51.330;19.378;2022-09-09T18:47:41;54.60;;;15.80;;
22565;SDS011;11449;51.330;19.378;2022-09-09T18:52:42;49.80;;;15.75;;
22565;SDS011;11449;51.330;19.378;2022-09-09T18:57:43;48.95;;;16.05;;
22565;SDS011;11449;51.330;19.378;2022-09-09T19:02:44;59.53;;;22.05;;
22565;SDS011;11449;51.330;19.378;2022-09-09T19:07:47;43.92;;;15.65;;
22565;SDS011;11449;51.330;19.378;2022-09-09T19:12:48;41.35;;;16.20;;
22565;SDS011;11449;51.330;19.378;2022-09-09T19:17:49;39.30;;;16.00;;
22565;SDS011;11449;51.330;19.378;2022-09-09T19:22:50;35.17;;;15.05;;
22565;SDS011;11449;51.330;19.378;2022-09-09T19:27:50;32.33;;;14.18;;
22565;SDS011;11449;51.330;19.378;2022-09-09T19:32:51;45.78;;;16.00;;
22565;SDS011;11449;51.330;19.378;2022-09-09T19:37:52;48.87;;;15.88;;
22565;SDS011;11449;51.330;19.378;2022-09-09T19:42:54;95.72;;;20.15;;
22565;SDS011;11449;51.330;19.378;2022-09-09T19:47:54;249.80;;;163.32;;
22565;SDS011;11449;51.330;19.378;2022-09-09T19:52:55;16.95;;;13.22;;
22565;SDS011;11449;51.330;19.378;2022-09-09T19:57:56;18.95;;;13.85;;
22565;SDS011;11449;51.330;19.378;2022-09-09T20:02:57;18.48;;;13.68;;
22565;SDS011;11449;51.330;19.378;2022-09-09T20:07:59;21.17;;;14.93;;
22565;SDS011;11449;51.330;19.378;2022-09-09T20:13:00;26.87;;;14.23;;
22565;SDS011;11449;51.330;19.378;2022-09-09T20:18:00;21.12;;;14.95;;
22565;SDS011;11449;51.330;19.378;2022-09-09T20:23:01;20.68;;;14.93;;
22565;SDS011;11449;51.330;19.378;2022-09-09T20:28:02;19.50;;;14.65;;
22565;SDS011;11449;51.330;19.378;2022-09-09T20:33:04;21.27;;;14.98;;
22565;SDS011;11449;51.330;19.378;2022-09-09T20:38:05;18.87;;;14.20;;
22565;SDS011;11449;51.330;19.378;2022-09-09T20:43:09;17.57;;;13.58;;
22565;SDS011;11449;51.330;19.378;2022-09-09T20:48:09;19.55;;;14.00;;
22565;SDS011;11449;51.330;19.378;2022-09-09T20:53:10;17.87;;;14.13;;
22565;SDS011;11449;51.330;19.378;2022-09-09T20:58:11;18.92;;;14.18;;
22565;SDS011;11449;51.330;19.378;2022-09-09T21:03:12;19.25;;;14.03;;
22565;SDS011;11449;51.330;19.378;2022-09-09T21:08:14;18.17;;;14.35;;
22565;SDS011;11449;51.330;19.378;2022-09-09T21:13:15;19.57;;;14.55;;
22565;SDS011;11449;51.330;19.378;2022-09-09T21:18:17;18.50;;;14.55;;
22565;SDS011;11449;51.330;19.378;2022-09-09T21:23:19;17.90;;;13.13;;
22565;SDS011;11449;51.330;19.378;2022-09-09T21:28:21;20.48;;;14.47;;
22565;SDS011;11449;51.330;19.378;2022-09-09T21:33:23;23.85;;;15.68;;
22565;SDS011;11449;51.330;19.378;2022-09-09T21:38:24;18.73;;;14.20;;
22565;SDS011;11449;51.330;19.378;2022-09-09T21:43:25;26.35;;;15.43;;
22565;SDS011;11449;51.330;19.378;2022-09-09T21:48:26;19.50;;;15.00;;
22565;SDS011;11449;51.330;19.378;2022-09-09T21:53:27;20.43;;;15.10;;
22565;SDS011;11449;51.330;19.378;2022-09-09T21:58:28;19.65;;;14.68;;
22565;SDS011;11449;51.330;19.378;2022-09-09T22:03:29;22.02;;;15.53;;
22565;SDS011;11449;51.330;19.378;2022-09-09T22:08:30;22.05;;;15.15;;
22565;SDS011;11449;51.330;19.378;2022-09-09T22:13:32;26.52;;;17.10;;
22565;SDS011;11449;51.330;19.378;2022-09-09T22:18:34;23.18;;;15.90;;
22565;SDS011;11449;51.330;19.378;2022-09-09T22:23:36;25.17;;;17.07;;
22565;SDS011;11449;51.330;19.378;2022-09-09T22:28:37;24.70;;;15.90;;
22565;SDS011;11449;51.330;19.378;2022-09-09T22:33:38;30.32;;;17.95;;
22565;SDS011;11449;51.330;19.378;2022-09-09T22:38:39;26.82;;;16.77;;
22565;SDS011;11449;51.330;19.378;2022-09-09T22:43:41;59.58;;;19.85;;
22565;SDS011;11449;51.330;19.378;2022-09-09T22:48:42;60.98;;;19.12;;
22565;SDS011;11449;51.330;19.378;2022-09-09T22:53:43;66.33;;;20.15;;
22565;SDS011;11449;51.330;19.378;2022-09-09T22:58:45;87.57;;;22.65;;
22565;SDS011;11449;51.330;19.378;2022-09-09T23:03:46;87.90;;;22.42;;
22565;SDS011;11449;51.330;19.378;2022-09-09T23:08:51;73.65;;;22.05;;
22565;SDS011;11449;51.330;19.378;2022-09-09T23:13:51;68.72;;;21.73;;
22565;SDS011;11449;51.330;19.378;2022-09-09T23:18:52;56.48;;;21.25;;
22565;SDS011;11449;51.330;19.378;2022-09-09T23:23:57;58.45;;;21.35;;
22565;SDS011;11449;51.330;19.378;2022-09-09T23:28:58;75.83;;;22.65;;
22565;SDS011;11449;51.330;19.378;2022-09-09T23:34:00;59.35;;;21.15;;
22565;SDS011;11449;51.330;19.378;2022-09-09T23:39:01;63.63;;;21.23;;
22565;SDS011;11449;51.330;19.378;2022-09-09T23:44:03;69.85;;;22.45;;
22565;SDS011;11449;51.330;19.378;2022-09-09T23:49:04;75.97;;;23.70;;
22565;SDS011;11449;51.330;19.378;2022-09-09T23:54:08;71.00;;;22.82;;
22565;SDS011;11449;51.330;19.378;2022-09-09T23:59:10;58.63;;;22.10;;
